sensor_id;sensor_type;location;lat;lon;timestamp;P1;durP1;ratioP1;P2;durP2;ratioP2
70078;SDS011;57451;52.496;13.456;2022-09-25T00:00:14;9.55;;;6.78;;
70078;SDS011;57451;52.496;13.456;2022-09-25T00:02:41;9.27;;;6.82;;
70078;SDS011;57451;52.496;13.456;2022-09-25T00:05:07;10.05;;;7.35;;
70078;SDS011;57451;52.496;13.456;2022-09-25T00:07:34;8.77;;;6.60;;
70078;SDS011;57451;52.496;13.456;2022-09-25T00:10:00;9.53;;;6.90;;
70078;SDS011;57451;52.496;13.456;2022-09-25T00:12:26;10.00;;;6.35;;
70078;SDS011;57451;52.496;13.456;2022-09-25T00:14:52;9.60;;;6.47;;
70078;SDS011;57451;52.496;13.456;2022-09-25T00:17:18;9.70;;;6.25;;
70078;SDS011;57451;52.496;13.456;2022-09-25T00:19:46;8.65;;;5.75;;
70078;SDS011;57451;52.496;13.456;2022-09-25T00:22:15;8.93;;;6.00;;
70078;SDS011;57451;52.496;13.456;2022-09-25T00:24:42;10.40;;;6.20;;
70078;SDS011;57451;52.496;13.456;2022-09-25T00:27:08;9.32;;;6.03;;
70078;SDS011;57451;52.496;13.456;2022-09-25T00:29:35;9.75;;;6.10;;
70078;SDS011;57451;52.496;13.456;2022-09-25T00:32:02;10.95;;;6.40;;
70078;SDS011;57451;52.496;13.456;2022-09-25T00:34:28;9.83;;;6.40;;
70078;SDS011;57451;52.496;13.456;2022-09-25T00:36:56;8.90;;;6.35;;
70078;SDS011;57451;52.496;13.456;2022-09-25T00:39:22;9.95;;;6.95;;
70078;SDS011;57451;52.496;13.456;2022-09-25T00:41:48;10.85;;;6.72;;
70078;SDS011;57451;52.496;13.456;2022-09-25T00:47:13;7.93;;;6.40;;
70078;SDS011;57451;52.496;13.456;2022-09-25T00:49:43;9.23;;;6.35;;
70078;SDS011;57451;52.496;13.456;2022-09-25T00:52:11;11.40;;;6.15;;
70078;SDS011;57451;52.496;13.456;2022-09-25T00:54:38;9.50;;;5.82;;
70078;SDS011;57451;52.496;13.456;2022-09-25T00:57:07;9.25;;;5.95;;
70078;SDS011;57451;52.496;13.456;2022-09-25T00:59:37;9.07;;;5.87;;
70078;SDS011;57451;52.496;13.456;2022-09-25T01:02:08;9.38;;;5.93;;
70078;SDS011;57451;52.496;13.456;2022-09-25T01:04:38;9.13;;;6.40;;
70078;SDS011;57451;52.496;13.456;2022-09-25T01:07:06;8.52;;;6.25;;
70078;SDS011;57451;52.496;13.456;2022-09-25T01:09:34;8.68;;;6.07;;
70078;SDS011;57451;52.496;13.456;2022-09-25T01:12:01;12.97;;;5.87;;
70078;SDS011;57451;52.496;13.456;2022-09-25T01:14:27;10.07;;;6.38;;
70078;SDS011;57451;52.496;13.456;2022-09-25T01:16:54;9.50;;;6.50;;
70078;SDS011;57451;52.496;13.456;2022-09-25T01:19:29;8.93;;;5.82;;
70078;SDS011;57451;52.496;13.456;2022-09-25T01:22:09;10.43;;;5.97;;
70078;SDS011;57451;52.496;13.456;2022-09-25T01:24:47;11.43;;;6.00;;
70078;SDS011;57451;52.496;13.456;2022-09-25T01:27:38;9.10;;;5.85;;
70078;SDS011;57451;52.496;13.456;2022-09-25T01:30:12;8.43;;;5.97;;
70078;SDS011;57451;52.496;13.456;2022-09-25T01:32:49;8.23;;;5.93;;
70078;SDS011;57451;52.496;13.456;2022-09-25T01:35:24;9.25;;;5.63;;
70078;SDS011;57451;52.496;13.456;2022-09-25T01:38:03;8.73;;;5.97;;
70078;SDS011;57451;52.496;13.456;2022-09-25T01:40:37;9.07;;;5.78;;
70078;SDS011;57451;52.496;13.456;2022-09-25T01:43:09;9.82;;;5.90;;
70078;SDS011;57451;52.496;13.456;2022-09-25T01:45:41;8.27;;;5.82;;
70078;SDS011;57451;52.496;13.456;2022-09-25T01:48:11;9.13;;;5.78;;
70078;SDS011;57451;52.496;13.456;2022-09-25T01:50:41;9.23;;;6.07;;
70078;SDS011;57451;52.496;13.456;2022-09-25T01:53:11;7.85;;;5.47;;
70078;SDS011;57451;52.496;13.456;2022-09-25T01:55:42;10.63;;;5.82;;
70078;SDS011;57451;52.496;13.456;2022-09-25T01:58:12;7.50;;;5.13;;
70078;SDS011;57451;52.496;13.456;2022-09-25T02:00:44;7.72;;;5.63;;
70078;SDS011;57451;52.496;13.456;2022-09-25T02:03:15;9.43;;;5.70;;
70078;SDS011;57451;52.496;13.456;2022-09-25T02:05:47;7.90;;;5.60;;
70078;SDS011;57451;52.496;13.456;2022-09-25T02:08:18;11.23;;;6.28;;
70078;SDS011;57451;52.496;13.456;2022-09-25T02:10:48;9.40;;;6.13;;
70078;SDS011;57451;52.496;13.456;2022-09-25T02:13:20;9.55;;;5.57;;
70078;SDS011;57451;52.496;13.456;2022-09-25T02:15:54;8.07;;;5.67;;
70078;SDS011;57451;52.496;13.456;2022-09-25T02:18:23;8.20;;;5.88;;
70078;SDS011;57451;52.496;13.456;2022-09-25T02:21:11;8.10;;;5.90;;
70078;SDS011;57451;52.496;13.456;2022-09-25T02:23:43;9.48;;;6.15;;
70078;SDS011;57451;52.496;13.456;2022-09-25T02:26:16;8.55;;;6.30;;
70078;SDS011;57451;52.496;13.456;2022-09-25T02:28:49;9.17;;;5.83;;
70078;SDS011;57451;52.496;13.456;2022-09-25T02:31:19;7.85;;;5.88;;
70078;SDS011;57451;52.496;13.456;2022-09-25T02:33:48;9.02;;;6.40;;
70078;SDS011;57451;52.496;13.456;2022-09-25T02:36:15;8.82;;;6.55;;
70078;SDS011;57451;52.496;13.456;2022-09-25T02:38:43;9.43;;;7.00;;
70078;SDS011;57451;52.496;13.456;2022-09-25T02:41:11;10.00;;;6.50;;
70078;SDS011;57451;52.496;13.456;2022-09-25T02:43:45;8.93;;;6.65;;
70078;SDS011;57451;52.496;13.456;2022-09-25T02:46:21;8.35;;;6.53;;
70078;SDS011;57451;52.496;13.456;2022-09-25T02:48:55;8.13;;;6.78;;
70078;SDS011;57451;52.496;13.456;2022-09-25T02:51:28;9.35;;;6.90;;
70078;SDS011;57451;52.496;13.456;2022-09-25T02:54:03;9.57;;;6.73;;
70078;SDS011;57451;52.496;13.456;2022-09-25T02:56:34;9.70;;;6.63;;
70078;SDS011;57451;52.496;13.456;2022-09-25T02:59:05;9.60;;;6.85;;
70078;SDS011;57451;52.496;13.456;2022-09-25T03:01:36;9.45;;;6.88;;
70078;SDS011;57451;52.496;13.456;2022-09-25T03:04:06;8.77;;;6.70;;
70078;SDS011;57451;52.496;13.456;2022-09-25T03:06:33;8.70;;;6.60;;
70078;SDS011;57451;52.496;13.456;2022-09-25T03:09:02;11.35;;;6.93;;
70078;SDS011;57451;52.496;13.456;2022-09-25T03:11:29;9.38;;;6.75;;
70078;SDS011;57451;52.496;13.456;2022-09-25T03:13:56;8.55;;;6.38;;
70078;SDS011;57451;52.496;13.456;2022-09-25T03:16:25;8.77;;;6.55;;
70078;SDS011;57451;52.496;13.456;2022-09-25T03:19:00;10.60;;;7.10;;
70078;SDS011;57451;52.496;13.456;2022-09-25T03:21:27;10.50;;;7.35;;
70078;SDS011;57451;52.496;13.456;2022-09-25T03:23:53;9.02;;;6.93;;
70078;SDS011;57451;52.496;13.456;2022-09-25T03:26:21;10.50;;;6.85;;
70078;SDS011;57451;52.496;13.456;2022-09-25T03:28:48;11.63;;;7.43;;
70078;SDS011;57451;52.496;13.456;2022-09-25T03:31:14;10.03;;;7.47;;
70078;SDS011;57451;52.496;13.456;2022-09-25T03:33:41;10.82;;;6.82;;
70078;SDS011;57451;52.496;13.456;2022-09-25T03:36:10;11.32;;;7.93;;
70078;SDS011;57451;52.496;13.456;2022-09-25T03:38:38;10.38;;;7.35;;
70078;SDS011;57451;52.496;13.456;2022-09-25T03:41:06;9.35;;;7.20;;
70078;SDS011;57451;52.496;13.456;2022-09-25T03:43:33;9.60;;;7.00;;
70078;SDS011;57451;52.496;13.456;2022-09-25T03:46:01;10.15;;;7.45;;
70078;SDS011;57451;52.496;13.456;2022-09-25T03:48:28;11.77;;;6.97;;
70078;SDS011;57451;52.496;13.456;2022-09-25T03:50:54;10.40;;;6.93;;
70078;SDS011;57451;52.496;13.456;2022-09-25T03:53:22;11.07;;;7.20;;
70078;SDS011;57451;52.496;13.456;2022-09-25T03:55:49;9.73;;;6.80;;
70078;SDS011;57451;52.496;13.456;2022-09-25T03:58:16;9.80;;;6.80;;
70078;SDS011;57451;52.496;13.456;2022-09-25T04:00:43;9.68;;;6.78;;
70078;SDS011;57451;52.496;13.456;2022-09-25T04:03:10;9.43;;;7.20;;
70078;SDS011;57451;52.496;13.456;2022-09-25T04:05:37;10.38;;;7.40;;
70078;SDS011;57451;52.496;13.456;2022-09-25T04:08:04;10.90;;;7.17;;
70078;SDS011;57451;52.496;13.456;2022-09-25T04:10:32;11.38;;;7.53;;
70078;SDS011;57451;52.496;13.456;2022-09-25T04:13:03;11.98;;;7.35;;
70078;SDS011;57451;52.496;13.456;2022-09-25T04:15:30;9.63;;;7.50;;
70078;SDS011;57451;52.496;13.456;2022-09-25T04:17:56;10.98;;;7.05;;
70078;SDS011;57451;52.496;13.456;2022-09-25T04:20:22;9.97;;;7.23;;
70078;SDS011;57451;52.496;13.456;2022-09-25T04:22:48;10.27;;;7.70;;
70078;SDS011;57451;52.496;13.456;2022-09-25T04:25:15;12.20;;;7.70;;
70078;SDS011;57451;52.496;13.456;2022-09-25T04:27:42;11.73;;;7.68;;
70078;SDS011;57451;52.496;13.456;2022-09-25T04:30:10;14.02;;;8.60;;
70078;SDS011;57451;52.496;13.456;2022-09-25T04:32:36;13.33;;;8.13;;
70078;SDS011;57451;52.496;13.456;2022-09-25T04:35:21;12.57;;;7.80;;
70078;SDS011;57451;52.496;13.456;2022-09-25T04:37:47;9.82;;;7.72;;
70078;SDS011;57451;52.496;13.456;2022-09-25T04:40:13;11.73;;;8.05;;
70078;SDS011;57451;52.496;13.456;2022-09-25T04:42:39;12.23;;;8.18;;
70078;SDS011;57451;52.496;13.456;2022-09-25T04:45:09;14.57;;;8.30;;
70078;SDS011;57451;52.496;13.456;2022-09-25T04:47:35;11.52;;;8.32;;
70078;SDS011;57451;52.496;13.456;2022-09-25T04:50:01;12.40;;;8.35;;
70078;SDS011;57451;52.496;13.456;2022-09-25T04:52:27;10.10;;;8.00;;
70078;SDS011;57451;52.496;13.456;2022-09-25T04:54:54;12.88;;;8.43;;
70078;SDS011;57451;52.496;13.456;2022-09-25T04:57:20;12.13;;;9.17;;
70078;SDS011;57451;52.496;13.456;2022-09-25T04:59:47;14.18;;;9.48;;
70078;SDS011;57451;52.496;13.456;2022-09-25T05:02:16;16.70;;;9.88;;
70078;SDS011;57451;52.496;13.456;2022-09-25T05:04:42;12.43;;;9.40;;
70078;SDS011;57451;52.496;13.456;2022-09-25T05:07:08;14.95;;;9.07;;
70078;SDS011;57451;52.496;13.456;2022-09-25T05:09:35;12.90;;;9.40;;
70078;SDS011;57451;52.496;13.456;2022-09-25T05:12:01;11.88;;;8.32;;
70078;SDS011;57451;52.496;13.456;2022-09-25T05:14:27;12.15;;;8.90;;
70078;SDS011;57451;52.496;13.456;2022-09-25T05:16:55;11.73;;;8.63;;
70078;SDS011;57451;52.496;13.456;2022-09-25T05:19:23;11.73;;;8.65;;
70078;SDS011;57451;52.496;13.456;2022-09-25T05:21:49;11.20;;;8.83;;
70078;SDS011;57451;52.496;13.456;2022-09-25T05:24:18;12.15;;;8.48;;
70078;SDS011;57451;52.496;13.456;2022-09-25T05:26:44;11.20;;;8.73;;
70078;SDS011;57451;52.496;13.456;2022-09-25T05:29:10;12.68;;;8.55;;
70078;SDS011;57451;52.496;13.456;2022-09-25T05:31:36;12.93;;;8.82;;
70078;SDS011;57451;52.496;13.456;2022-09-25T05:34:02;14.53;;;9.33;;
70078;SDS011;57451;52.496;13.456;2022-09-25T05:36:30;15.55;;;9.65;;
70078;SDS011;57451;52.496;13.456;2022-09-25T05:38:57;15.30;;;9.85;;
70078;SDS011;57451;52.496;13.456;2022-09-25T05:41:24;11.95;;;9.80;;
70078;SDS011;57451;52.496;13.456;2022-09-25T05:43:51;12.80;;;9.30;;
70078;SDS011;57451;52.496;13.456;2022-09-25T05:46:17;11.97;;;9.53;;
70078;SDS011;57451;52.496;13.456;2022-09-25T05:48:43;13.95;;;9.10;;
70078;SDS011;57451;52.496;13.456;2022-09-25T05:51:09;13.68;;;9.45;;
70078;SDS011;57451;52.496;13.456;2022-09-25T05:53:37;13.40;;;9.25;;
70078;SDS011;57451;52.496;13.456;2022-09-25T05:56:03;12.30;;;8.80;;
70078;SDS011;57451;52.496;13.456;2022-09-25T05:58:30;12.93;;;9.07;;
70078;SDS011;57451;52.496;13.456;2022-09-25T06:00:58;12.30;;;9.00;;
70078;SDS011;57451;52.496;13.456;2022-09-25T06:03:25;13.30;;;9.40;;
70078;SDS011;57451;52.496;13.456;2022-09-25T06:05:54;10.82;;;8.90;;
70078;SDS011;57451;52.496;13.456;2022-09-25T06:08:20;12.68;;;9.43;;
70078;SDS011;57451;52.496;13.456;2022-09-25T06:10:51;12.00;;;8.80;;
70078;SDS011;57451;52.496;13.456;2022-09-25T06:13:18;12.60;;;9.23;;
70078;SDS011;57451;52.496;13.456;2022-09-25T06:15:44;15.27;;;9.50;;
70078;SDS011;57451;52.496;13.456;2022-09-25T06:18:10;14.00;;;8.98;;
70078;SDS011;57451;52.496;13.456;2022-09-25T06:20:37;13.27;;;9.05;;
70078;SDS011;57451;52.496;13.456;2022-09-25T06:23:03;14.17;;;9.20;;
70078;SDS011;57451;52.496;13.456;2022-09-25T06:25:29;12.77;;;9.00;;
70078;SDS011;57451;52.496;13.456;2022-09-25T06:28:02;12.07;;;9.18;;
70078;SDS011;57451;52.496;13.456;2022-09-25T06:30:29;16.27;;;9.43;;
70078;SDS011;57451;52.496;13.456;2022-09-25T06:33:01;14.73;;;9.68;;
70078;SDS011;57451;52.496;13.456;2022-09-25T06:35:31;14.03;;;9.07;;
70078;SDS011;57451;52.496;13.456;2022-09-25T06:37:59;11.80;;;9.07;;
70078;SDS011;57451;52.496;13.456;2022-09-25T06:40:27;10.15;;;8.48;;
70078;SDS011;57451;52.496;13.456;2022-09-25T06:42:55;13.13;;;9.60;;
70078;SDS011;57451;52.496;13.456;2022-09-25T06:45:23;12.90;;;9.23;;
70078;SDS011;57451;52.496;13.456;2022-09-25T06:47:49;12.27;;;8.80;;
70078;SDS011;57451;52.496;13.456;2022-09-25T06:50:15;13.13;;;9.93;;
70078;SDS011;57451;52.496;13.456;2022-09-25T06:52:41;15.50;;;10.75;;
70078;SDS011;57451;52.496;13.456;2022-09-25T06:55:08;14.18;;;9.98;;
70078;SDS011;57451;52.496;13.456;2022-09-25T06:57:34;14.63;;;9.80;;
70078;SDS011;57451;52.496;13.456;2022-09-25T07:00:02;14.80;;;10.40;;
70078;SDS011;57451;52.496;13.456;2022-09-25T07:02:30;14.27;;;10.40;;
70078;SDS011;57451;52.496;13.456;2022-09-25T07:05:15;13.32;;;10.25;;
70078;SDS011;57451;52.496;13.456;2022-09-25T07:07:43;14.68;;;10.80;;
70078;SDS011;57451;52.496;13.456;2022-09-25T07:10:09;14.05;;;10.70;;
70078;SDS011;57451;52.496;13.456;2022-09-25T07:12:36;14.10;;;10.40;;
70078;SDS011;57451;52.496;13.456;2022-09-25T07:15:03;14.95;;;10.52;;
70078;SDS011;57451;52.496;13.456;2022-09-25T07:17:31;15.02;;;10.48;;
70078;SDS011;57451;52.496;13.456;2022-09-25T07:19:57;15.05;;;11.13;;
70078;SDS011;57451;52.496;13.456;2022-09-25T07:22:23;16.92;;;10.82;;
70078;SDS011;57451;52.496;13.456;2022-09-25T07:24:50;14.57;;;10.77;;
70078;SDS011;57451;52.496;13.456;2022-09-25T07:27:16;16.25;;;10.50;;
70078;SDS011;57451;52.496;13.456;2022-09-25T07:29:42;15.43;;;10.77;;
70078;SDS011;57451;52.496;13.456;2022-09-25T07:32:08;13.77;;;10.90;;
70078;SDS011;57451;52.496;13.456;2022-09-25T07:34:37;14.32;;;10.85;;
70078;SDS011;57451;52.496;13.456;2022-09-25T07:37:03;14.43;;;10.23;;
70078;SDS011;57451;52.496;13.456;2022-09-25T07:39:29;14.98;;;11.60;;
70078;SDS011;57451;52.496;13.456;2022-09-25T07:41:55;15.38;;;10.63;;
70078;SDS011;57451;52.496;13.456;2022-09-25T07:44:21;13.65;;;10.15;;
70078;SDS011;57451;52.496;13.456;2022-09-25T07:46:48;17.02;;;11.05;;
70078;SDS011;57451;52.496;13.456;2022-09-25T07:49:14;13.83;;;10.87;;
70078;SDS011;57451;52.496;13.456;2022-09-25T07:51:42;16.02;;;11.00;;
70078;SDS011;57451;52.496;13.456;2022-09-25T07:54:08;13.88;;;11.15;;
70078;SDS011;57451;52.496;13.456;2022-09-25T07:56:34;13.45;;;10.13;;
70078;SDS011;57451;52.496;13.456;2022-09-25T07:59:02;15.75;;;10.68;;
70078;SDS011;57451;52.496;13.456;2022-09-25T08:01:28;14.70;;;11.37;;
70078;SDS011;57451;52.496;13.456;2022-09-25T08:03:55;16.52;;;11.38;;
70078;SDS011;57451;52.496;13.456;2022-09-25T08:06:21;16.25;;;11.52;;
70078;SDS011;57451;52.496;13.456;2022-09-25T08:08:48;15.73;;;10.85;;
70078;SDS011;57451;52.496;13.456;2022-09-25T08:11:15;14.43;;;10.55;;
70078;SDS011;57451;52.496;13.456;2022-09-25T08:13:43;16.97;;;11.33;;
70078;SDS011;57451;52.496;13.456;2022-09-25T08:16:11;19.02;;;13.27;;
70078;SDS011;57451;52.496;13.456;2022-09-25T08:18:38;14.18;;;10.95;;
70078;SDS011;57451;52.496;13.456;2022-09-25T08:21:06;14.43;;;10.57;;
70078;SDS011;57451;52.496;13.456;2022-09-25T08:23:33;14.98;;;11.10;;
70078;SDS011;57451;52.496;13.456;2022-09-25T08:26:01;16.80;;;11.37;;
70078;SDS011;57451;52.496;13.456;2022-09-25T08:28:27;14.52;;;10.48;;
70078;SDS011;57451;52.496;13.456;2022-09-25T08:30:53;17.50;;;10.77;;
70078;SDS011;57451;52.496;13.456;2022-09-25T08:33:22;14.60;;;10.77;;
70078;SDS011;57451;52.496;13.456;2022-09-25T08:35:53;13.15;;;10.30;;
70078;SDS011;57451;52.496;13.456;2022-09-25T08:38:20;17.33;;;11.03;;
70078;SDS011;57451;52.496;13.456;2022-09-25T08:40:50;14.30;;;10.48;;
70078;SDS011;57451;52.496;13.456;2022-09-25T08:43:21;14.52;;;10.95;;
70078;SDS011;57451;52.496;13.456;2022-09-25T08:45:48;16.40;;;11.70;;
70078;SDS011;57451;52.496;13.456;2022-09-25T08:48:35;15.27;;;10.60;;
70078;SDS011;57451;52.496;13.456;2022-09-25T08:51:25;15.17;;;10.70;;
70078;SDS011;57451;52.496;13.456;2022-09-25T08:53:52;15.73;;;10.50;;
70078;SDS011;57451;52.496;13.456;2022-09-25T08:56:18;15.13;;;10.60;;
70078;SDS011;57451;52.496;13.456;2022-09-25T08:58:50;15.18;;;10.52;;
70078;SDS011;57451;52.496;13.456;2022-09-25T09:01:21;15.10;;;10.82;;
70078;SDS011;57451;52.496;13.456;2022-09-25T09:03:51;17.30;;;11.10;;
70078;SDS011;57451;52.496;13.456;2022-09-25T09:06:22;14.75;;;10.60;;
70078;SDS011;57451;52.496;13.456;2022-09-25T09:08:52;14.60;;;10.65;;
70078;SDS011;57451;52.496;13.456;2022-09-25T09:11:23;18.13;;;10.73;;
70078;SDS011;57451;52.496;13.456;2022-09-25T09:13:56;13.85;;;10.65;;
70078;SDS011;57451;52.496;13.456;2022-09-25T09:16:27;17.13;;;11.40;;
70078;SDS011;57451;52.496;13.456;2022-09-25T09:18:58;13.93;;;10.43;;
70078;SDS011;57451;52.496;13.456;2022-09-25T09:21:27;14.55;;;10.23;;
70078;SDS011;57451;52.496;13.456;2022-09-25T09:24:00;13.50;;;10.38;;
70078;SDS011;57451;52.496;13.456;2022-09-25T09:26:32;13.35;;;10.18;;
70078;SDS011;57451;52.496;13.456;2022-09-25T09:29:15;13.03;;;10.47;;
70078;SDS011;57451;52.496;13.456;2022-09-25T09:31:50;14.38;;;10.68;;
70078;SDS011;57451;52.496;13.456;2022-09-25T09:34:32;16.38;;;10.45;;
70078;SDS011;57451;52.496;13.456;2022-09-25T09:37:10;14.55;;;10.30;;
70078;SDS011;57451;52.496;13.456;2022-09-25T09:39:43;15.15;;;10.45;;
70078;SDS011;57451;52.496;13.456;2022-09-25T09:42:16;12.20;;;10.27;;
70078;SDS011;57451;52.496;13.456;2022-09-25T09:44:54;13.05;;;9.95;;
70078;SDS011;57451;52.496;13.456;2022-09-25T09:47:31;14.05;;;10.45;;
70078;SDS011;57451;52.496;13.456;2022-09-25T09:50:18;13.85;;;10.15;;
70078;SDS011;57451;52.496;13.456;2022-09-25T09:52:50;15.23;;;10.35;;
70078;SDS011;57451;52.496;13.456;2022-09-25T09:55:22;12.67;;;10.33;;
70078;SDS011;57451;52.496;13.456;2022-09-25T09:57:51;15.65;;;11.02;;
70078;SDS011;57451;52.496;13.456;2022-09-25T10:00:21;13.48;;;9.98;;
70078;SDS011;57451;52.496;13.456;2022-09-25T10:02:49;13.85;;;10.07;;
70078;SDS011;57451;52.496;13.456;2022-09-25T10:05:22;15.40;;;11.27;;
70078;SDS011;57451;52.496;13.456;2022-09-25T10:07:50;13.33;;;10.77;;
70078;SDS011;57451;52.496;13.456;2022-09-25T10:10:18;12.75;;;10.15;;
70078;SDS011;57451;52.496;13.456;2022-09-25T10:12:45;12.95;;;10.88;;
70078;SDS011;57451;52.496;13.456;2022-09-25T10:15:18;15.90;;;11.13;;
70078;SDS011;57451;52.496;13.456;2022-09-25T10:17:52;14.38;;;10.57;;
70078;SDS011;57451;52.496;13.456;2022-09-25T10:20:19;16.17;;;10.97;;
70078;SDS011;57451;52.496;13.456;2022-09-25T10:22:48;16.20;;;11.05;;
70078;SDS011;57451;52.496;13.456;2022-09-25T10:25:17;13.73;;;11.13;;
70078;SDS011;57451;52.496;13.456;2022-09-25T10:27:59;13.95;;;11.18;;
70078;SDS011;57451;52.496;13.456;2022-09-25T10:30:46;16.25;;;11.18;;
70078;SDS011;57451;52.496;13.456;2022-09-25T10:33:14;15.27;;;11.93;;
70078;SDS011;57451;52.496;13.456;2022-09-25T10:35:44;14.25;;;10.85;;
70078;SDS011;57451;52.496;13.456;2022-09-25T10:38:16;14.07;;;11.23;;
70078;SDS011;57451;52.496;13.456;2022-09-25T10:40:55;16.25;;;12.07;;
70078;SDS011;57451;52.496;13.456;2022-09-25T10:43:23;15.35;;;11.25;;
70078;SDS011;57451;52.496;13.456;2022-09-25T10:45:51;16.17;;;11.40;;
70078;SDS011;57451;52.496;13.456;2022-09-25T10:48:30;13.60;;;10.60;;
70078;SDS011;57451;52.496;13.456;2022-09-25T10:51:17;14.93;;;11.90;;
70078;SDS011;57451;52.496;13.456;2022-09-25T10:53:46;13.70;;;10.95;;
70078;SDS011;57451;52.496;13.456;2022-09-25T10:56:14;14.50;;;10.82;;
70078;SDS011;57451;52.496;13.456;2022-09-25T10:58:45;13.20;;;10.50;;
70078;SDS011;57451;52.496;13.456;2022-09-25T11:01:14;15.32;;;11.15;;
70078;SDS011;57451;52.496;13.456;2022-09-25T11:03:45;14.02;;;11.15;;
70078;SDS011;57451;52.496;13.456;2022-09-25T11:06:16;14.07;;;10.80;;
70078;SDS011;57451;52.496;13.456;2022-09-25T11:08:46;14.73;;;10.90;;
70078;SDS011;57451;52.496;13.456;2022-09-25T11:11:19;13.00;;;11.17;;
70078;SDS011;57451;52.496;13.456;2022-09-25T11:13:47;13.70;;;10.23;;
70078;SDS011;57451;52.496;13.456;2022-09-25T11:16:17;14.82;;;10.90;;
70078;SDS011;57451;52.496;13.456;2022-09-25T11:18:44;12.60;;;9.90;;
70078;SDS011;57451;52.496;13.456;2022-09-25T11:21:17;12.32;;;9.35;;
70078;SDS011;57451;52.496;13.456;2022-09-25T11:23:52;12.13;;;8.80;;
70078;SDS011;57451;52.496;13.456;2022-09-25T11:26:27;12.73;;;8.90;;
70078;SDS011;57451;52.496;13.456;2022-09-25T11:28:58;13.30;;;9.02;;
70078;SDS011;57451;52.496;13.456;2022-09-25T11:31:33;12.38;;;8.90;;
70078;SDS011;57451;52.496;13.456;2022-09-25T11:34:06;12.45;;;9.10;;
70078;SDS011;57451;52.496;13.456;2022-09-25T11:36:40;11.10;;;8.93;;
70078;SDS011;57451;52.496;13.456;2022-09-25T11:39:11;11.63;;;8.88;;
70078;SDS011;57451;52.496;13.456;2022-09-25T11:42:04;12.15;;;9.70;;
70078;SDS011;57451;52.496;13.456;2022-09-25T11:44:34;12.57;;;9.50;;
70078;SDS011;57451;52.496;13.456;2022-09-25T11:47:07;12.95;;;9.65;;
70078;SDS011;57451;52.496;13.456;2022-09-25T11:49:40;13.83;;;9.53;;
70078;SDS011;57451;52.496;13.456;2022-09-25T11:55:26;12.63;;;10.25;;
70078;SDS011;57451;52.496;13.456;2022-09-25T11:58:07;11.88;;;9.55;;
70078;SDS011;57451;52.496;13.456;2022-09-25T12:00:50;12.32;;;10.20;;
70078;SDS011;57451;52.496;13.456;2022-09-25T12:03:26;11.53;;;9.57;;
70078;SDS011;57451;52.496;13.456;2022-09-25T12:06:04;12.05;;;8.73;;
70078;SDS011;57451;52.496;13.456;2022-09-25T12:08:47;12.38;;;9.30;;
70078;SDS011;57451;52.496;13.456;2022-09-25T12:11:22;10.90;;;8.95;;
70078;SDS011;57451;52.496;13.456;2022-09-25T12:13:56;12.30;;;9.68;;
70078;SDS011;57451;52.496;13.456;2022-09-25T12:16:30;11.87;;;9.80;;
70078;SDS011;57451;52.496;13.456;2022-09-25T12:19:08;15.25;;;9.45;;
70078;SDS011;57451;52.496;13.456;2022-09-25T12:21:43;11.70;;;8.75;;
70078;SDS011;57451;52.496;13.456;2022-09-25T12:24:20;13.43;;;9.00;;
70078;SDS011;57451;52.496;13.456;2022-09-25T12:26:58;12.68;;;8.93;;
70078;SDS011;57451;52.496;13.456;2022-09-25T12:29:37;12.67;;;8.87;;
70078;SDS011;57451;52.496;13.456;2022-09-25T12:32:23;12.27;;;8.60;;
70078;SDS011;57451;52.496;13.456;2022-09-25T12:35:08;11.63;;;8.63;;
70078;SDS011;57451;52.496;13.456;2022-09-25T12:37:44;11.82;;;8.70;;
70078;SDS011;57451;52.496;13.456;2022-09-25T12:40:17;10.15;;;7.72;;
70078;SDS011;57451;52.496;13.456;2022-09-25T12:42:49;10.40;;;7.43;;
70078;SDS011;57451;52.496;13.456;2022-09-25T12:45:22;10.70;;;7.40;;
70078;SDS011;57451;52.496;13.456;2022-09-25T12:48:03;10.02;;;6.95;;
70078;SDS011;57451;52.496;13.456;2022-09-25T12:50:40;9.55;;;6.95;;
70078;SDS011;57451;52.496;13.456;2022-09-25T12:53:20;10.90;;;6.75;;
70078;SDS011;57451;52.496;13.456;2022-09-25T12:55:51;9.73;;;6.70;;
70078;SDS011;57451;52.496;13.456;2022-09-25T12:58:24;8.38;;;6.20;;
70078;SDS011;57451;52.496;13.456;2022-09-25T13:01:00;8.48;;;6.30;;
70078;SDS011;57451;52.496;13.456;2022-09-25T13:03:33;10.23;;;7.00;;
70078;SDS011;57451;52.496;13.456;2022-09-25T13:06:10;8.68;;;6.40;;
70078;SDS011;57451;52.496;13.456;2022-09-25T13:08:42;10.00;;;6.87;;
70078;SDS011;57451;52.496;13.456;2022-09-25T13:11:17;12.13;;;6.57;;
70078;SDS011;57451;52.496;13.456;2022-09-25T13:13:49;9.32;;;6.05;;
70078;SDS011;57451;52.496;13.456;2022-09-25T13:16:18;9.70;;;5.80;;
70078;SDS011;57451;52.496;13.456;2022-09-25T13:18:45;9.30;;;5.85;;
70078;SDS011;57451;52.496;13.456;2022-09-25T13:21:24;7.97;;;6.00;;
70078;SDS011;57451;52.496;13.456;2022-09-25T13:23:53;9.15;;;6.57;;
70078;SDS011;57451;52.496;13.456;2022-09-25T13:26:21;9.25;;;6.00;;
70078;SDS011;57451;52.496;13.456;2022-09-25T13:28:53;10.45;;;6.07;;
70078;SDS011;57451;52.496;13.456;2022-09-25T13:31:22;8.07;;;5.95;;
70078;SDS011;57451;52.496;13.456;2022-09-25T13:33:52;8.00;;;6.03;;
70078;SDS011;57451;52.496;13.456;2022-09-25T13:39:20;9.57;;;7.68;;
70078;SDS011;57451;52.496;13.456;2022-09-25T13:42:12;8.45;;;6.05;;
70078;SDS011;57451;52.496;13.456;2022-09-25T13:47:41;8.70;;;5.53;;
70078;SDS011;57451;52.496;13.456;2022-09-25T13:50:24;7.78;;;5.40;;
70078;SDS011;57451;52.496;13.456;2022-09-25T13:53:12;9.38;;;5.75;;
70078;SDS011;57451;52.496;13.456;2022-09-25T13:56:03;8.80;;;6.00;;
70078;SDS011;57451;52.496;13.456;2022-09-25T13:59:02;8.52;;;5.72;;
70078;SDS011;57451;52.496;13.456;2022-09-25T14:01:45;10.90;;;5.80;;
70078;SDS011;57451;52.496;13.456;2022-09-25T14:04:15;7.70;;;5.68;;
70078;SDS011;57451;52.496;13.456;2022-09-25T14:06:48;10.60;;;6.45;;
70078;SDS011;57451;52.496;13.456;2022-09-25T14:09:21;8.40;;;6.10;;
70078;SDS011;57451;52.496;13.456;2022-09-25T14:11:50;9.32;;;6.35;;
70078;SDS011;57451;52.496;13.456;2022-09-25T14:14:22;9.17;;;6.43;;
70078;SDS011;57451;52.496;13.456;2022-09-25T14:16:54;8.43;;;5.88;;
70078;SDS011;57451;52.496;13.456;2022-09-25T14:19:23;9.02;;;6.28;;
70078;SDS011;57451;52.496;13.456;2022-09-25T14:21:51;9.10;;;6.25;;
70078;SDS011;57451;52.496;13.456;2022-09-25T14:24:18;9.07;;;6.53;;
70078;SDS011;57451;52.496;13.456;2022-09-25T14:26:49;8.77;;;6.30;;
70078;SDS011;57451;52.496;13.456;2022-09-25T14:29:21;8.13;;;6.10;;
70078;SDS011;57451;52.496;13.456;2022-09-25T14:31:50;9.13;;;6.43;;
70078;SDS011;57451;52.496;13.456;2022-09-25T14:34:29;7.90;;;6.35;;
70078;SDS011;57451;52.496;13.456;2022-09-25T14:37:21;9.35;;;6.38;;
70078;SDS011;57451;52.496;13.456;2022-09-25T14:40:03;9.03;;;6.87;;
70078;SDS011;57451;52.496;13.456;2022-09-25T14:45:36;8.70;;;7.38;;
70078;SDS011;57451;52.496;13.456;2022-09-25T14:48:11;9.40;;;6.97;;
70078;SDS011;57451;52.496;13.456;2022-09-25T14:50:42;10.27;;;7.18;;
70078;SDS011;57451;52.496;13.456;2022-09-25T14:53:12;10.67;;;7.73;;
70078;SDS011;57451;52.496;13.456;2022-09-25T14:55:45;9.45;;;7.82;;